Terminal Aerodrome Forecast
Issued by NWS Twin Cities, MN

Home | Current Version | Previous Version | Graphics & Text | Print | Product List | Glossary On
Versions: 1 2 3 4 5 6 7 8 9 10 11 12 13 14 15 16 17
000
FTUS43 KMPX 210800 AAA
TAFEAU
TAF AMD
KEAU 210853Z 2109/2206 VRB03KT P6SM SCT040
      TEMPO 2109/2112 1SM BR SCT002
     FM211200 08004KT P6SM SCT035
     FM211600 12007KT P6SM FEW045=

USA.gov is the U.S. government's official web portal to all federal, state and local government web resources and services.